Airfield :
LOGIN :

Register | Disclaimer

   EN    FR    IT 

 










Legend :    VFR   Marginal VFR   IFR   Intensive IFR   Very Intensive IFR
Visi :
Ceiling :
>= 8 km
>= 3000ft
5 to 8 km
1000 to 3000 ft
1500m to 5 km
500 to 1000 ft
800 to 1500m
200 to 500 ft
< 800m
< 200 ft
Symbols :   Thunderstorms  Fog  Heavy snow  Heavy precipitations  Wind > 20 kt
SIGMETs :     Misc.  Thunderstorms  Icing  Turbulence  Mountain Waves  Volcanic Ashes






- Airport Elevation : 1197 ft
- IATA code : SPM


ETAD - Spangdahlem Ab

CURRENT METAR :
  • 272100Z AUTO 26012KT 9999 -RA BKN016 01/M01 A2971 RMK AO2 RAB00 CIG 013 RWY05 SLP069 $

EXPIRED METARs :
  • 272041Z AUTO 28012G21KT 9999 BKN016 01/M01 A2969 RMK AO2 CIG 014 RWY05 PRESRR SLP062 $
  • 271956Z AUTO 26011KT 9999 OVC013 00/M01 A2963 RMK AO2 RAE08RAB27E37 PRESRR SLP041 P0000 T00041014 $
  • 271937Z AUTO 28008KT 9999 OVC013 00/M01 A2960 RMK AO2 RAE08RAB27E37 SLP031 $
  • 271927Z AUTO 29009G14KT 9999 -RA OVC011 01/M01 A2959 RMK AO2 RAE08RAB27 PRESRR SLP028 $
  • 271908Z AUTO 29008KT 9999 OVC010 01/M01 A2957 RMK AO2 RAE08 PRESRR SLP021 $
  • 271856Z AUTO 26004KT 9999 -RA OVC010 01/00 A2955 RMK AO2 SNE1757RAB1757E37RAB52 CIG 009 RWY05 SLP014 P0000 T00061001
  • 271837Z AUTO 27004KT 9999 OVC011 01/00 A2952 RMK AO2 SNE1757RAB1757E37 PRESRR SLP004 $

TAF TAF ETAD
Valid from the 27 at 21:00 until the 29 at 03:00 UTC


272100Z 2721/2903 30015G25KT 9999 OVC015 620159 QNH2956INS
BECMG 2723/2724 27012G18KT 9999 SCT015 QNH2982INS
BECMG 2803/2804 25008KT 9999 BKN005 620053 QNH2991INS
BECMG 2811/2812 20010G15KT 9999 SCT007 BKN100 QNH2995INS
BECMG 2818/2819 18012G18KT 8000 -SHRA BKN020 QNH2995INS
BECMG 2822/2823 20012G18KT 6000 SHRA BKN005 610059 QNH2961INS TX03/2816Z TNM03/2806Z LAST NO AMDS AFT 2721 NEXT 2805



MET'MAP, your aeronautical weather chart ! - Copyright ORBIFLY December 2007 - Disclaimer

ORBIFLY MET'MAP TEAM :

Programming & Development : Alexandra Zaïnal
Concept & original design : Baudouin d'Aumeries
Assistance for programming : Marc-Olivier Méhu
Technical & hardware support : Manuel Goepfert

Contact : metmap@orbifly.com




SOURCES & CREDITS :

   NOAA